Prince Of Seas — A8JI5 — position and weather

sailwx.info

Track history (hours):
 
Tides and Currents Weather Stations Pressure Air Temp Water Temp Dewpoint Dewpoint Depression Visibility Wind Speed Wind Dir Waves Ship Positions

Prince Of Seas

Last reported at 2015-Mar-29 04:20 UTC. Time now 2015-Apr-02 03:07 UTC.
Position N 27°39' W 082°35'.

Length 131 m; beam 19 m.

Type: Ship. MMSI: 636091098.

Date/timePositionNaut miles runAvg speedWind from/ knotsBaromVisibWave heightAir tempDewpointWater temp
2015-Mar-29 04:20N 27°39' W 082°35'1 0.0
2015-Mar-28 02:05N 27°38' W 082°34'5 7.1
2015-Mar-28 01:19N 27°37' W 082°40'  
2015-Mar-22 08:09N 25°20' W 084°12'1518.9
2015-Mar-22 07:20N 25°35' W 084°07'3718.8
2015-Mar-22 05:23N 26°09' W 083°53'1518.4
2015-Mar-22 04:33N 26°23' W 083°45'1818.2
2015-Mar-22 03:33N 26°39' W 083°36'7016.5
2015-Mar-21 23:19N 27°36' W 082°51'1314.6
2015-Mar-21 22:24N 27°39' W 082°36'3 0.2
2015-Mar-21 04:33N 27°38' W 082°34'0 0.0
2015-Mar-21 03:18N 27°38' W 082°34'0 0.1
2015-Mar-21 02:34N 27°38' W 082°34'1411.2
2015-Mar-21 01:18N 27°36' W 082°49'1013.8
2015-Mar-21 00:33N 27°35' W 083°01'1817.3
2015-Mar-20 23:32N 27°17' W 083°06'1717.3
2015-Mar-20 22:33N 27°01' W 083°11'1717.3
2015-Mar-20 21:33N 26°44' W 083°16'1717.4
2015-Mar-20 20:33N 26°27' W 083°20'2117.7
2015-Mar-20 19:21N 26°07' W 083°25'  
Track history (hours):
 
Tides and Currents Weather Stations Pressure Air Temp Water Temp Dewpoint Dewpoint Depression Visibility Wind Speed Wind Dir Waves Ship Positions

Prince Of Seas

Last reported at 2015-Mar-29 04:20 UTC. Time now 2015-Apr-02 03:07 UTC.
Position N 27°39' W 082°35'.

Length 131 m; beam 19 m.

Type: Ship. MMSI: 636091098.

Date/timePositionNaut miles runAvg speedWind from/ knotsBaromVisibWave heightAir tempDewpointWater temp
2015-Mar-29 04:20N 27°39' W 082°35'1 0.0
2015-Mar-28 02:05N 27°38' W 082°34'5 7.1
2015-Mar-28 01:19N 27°37' W 082°40'  
2015-Mar-22 08:09N 25°20' W 084°12'1518.9
2015-Mar-22 07:20N 25°35' W 084°07'3718.8
2015-Mar-22 05:23N 26°09' W 083°53'1518.4
2015-Mar-22 04:33N 26°23' W 083°45'1818.2
2015-Mar-22 03:33N 26°39' W 083°36'7016.5
2015-Mar-21 23:19N 27°36' W 082°51'1314.6
2015-Mar-21 22:24N 27°39' W 082°36'3 0.2
2015-Mar-21 04:33N 27°38' W 082°34'0 0.0
2015-Mar-21 03:18N 27°38' W 082°34'0 0.1
2015-Mar-21 02:34N 27°38' W 082°34'1411.2
2015-Mar-21 01:18N 27°36' W 082°49'1013.8
2015-Mar-21 00:33N 27°35' W 083°01'1817.3
2015-Mar-20 23:32N 27°17' W 083°06'1717.3
2015-Mar-20 22:33N 27°01' W 083°11'1717.3
2015-Mar-20 21:33N 26°44' W 083°16'1717.4
2015-Mar-20 20:33N 26°27' W 083°20'2117.7
2015-Mar-20 19:21N 26°07' W 083°25'  

Dump ship's entire track history